createdAt,value
2023-01-29T05:52:40.749Z,-1.84
2023-01-29T05:55:09.461Z,-1.66
2023-01-29T05:57:36.148Z,-1.36
2023-01-29T06:00:03.194Z,-1.64
2023-01-29T06:02:39.391Z,-2.02
2023-01-29T06:05:06.278Z,-1.59
2023-01-29T06:07:32.761Z,-1.55
2023-01-29T06:09:59.213Z,-1.39
2023-01-29T06:12:27.137Z,-1.80
2023-01-29T06:14:53.638Z,-1.96
2023-01-29T06:17:20.239Z,-1.62
2023-01-29T06:19:46.701Z,-2.39
2023-01-29T06:22:13.148Z,-1.92
2023-01-29T06:24:39.708Z,-1.56
2023-01-29T06:27:06.161Z,-1.37
2023-01-29T06:29:32.699Z,-1.56
2023-01-29T06:31:59.278Z,-1.65
2023-01-29T06:34:25.793Z,-1.53
2023-01-29T06:36:52.277Z,-1.38
2023-01-29T06:39:18.756Z,-1.34
2023-01-29T06:41:46.234Z,-1.28
2023-01-29T06:44:12.728Z,-1.38
2023-01-29T06:46:39.223Z,-1.70
2023-01-29T06:49:05.853Z,-1.49
2023-01-29T06:51:32.370Z,-1.46
2023-01-29T06:53:59.602Z,-1.31
2023-01-29T06:56:26.122Z,-1.40
2023-01-29T06:58:52.723Z,-1.40
2023-01-29T07:01:34.765Z,-1.61
2023-01-29T07:04:02.903Z,-2.20
2023-01-29T07:06:30.309Z,-1.72
2023-01-29T07:08:56.855Z,-1.38
2023-01-29T07:11:23.554Z,-1.25
2023-01-29T07:13:50.105Z,-1.89
2023-01-29T07:16:17.028Z,-1.71
2023-01-29T07:18:43.567Z,-1.69
2023-01-29T07:21:10.060Z,-1.33
2023-01-29T07:23:37.350Z,-1.40
2023-01-29T07:26:05.332Z,-1.67
2023-01-29T07:28:32.121Z,-1.71
2023-01-29T07:30:59.225Z,-1.68
2023-01-29T07:33:26.449Z,-1.80
2023-01-29T07:35:53.667Z,-2.05
2023-01-29T07:38:20.424Z,-1.76
2023-01-29T07:40:47.020Z,-1.62
2023-01-29T07:43:13.568Z,-2.08
2023-01-29T07:45:40.450Z,-2.02
2023-01-29T07:48:09.706Z,-1.53
2023-01-29T07:50:36.502Z,-1.21
2023-01-29T07:53:03.374Z,-0.92
2023-01-29T07:55:30.044Z,-0.99
2023-01-29T07:57:57.888Z,-0.74
2023-01-29T08:00:24.533Z,-0.98
2023-01-29T08:02:51.315Z,-0.78
2023-01-29T08:05:17.990Z,-0.60
2023-01-29T08:07:49.262Z,-0.62
2023-01-29T08:10:20.776Z,-0.60
2023-01-29T08:12:47.394Z,-0.90
2023-01-29T08:15:13.975Z,-1.12
2023-01-29T08:17:56.132Z,-0.69
2023-01-29T08:20:24.013Z,-0.56
2023-01-29T08:22:58.046Z,-1.15
2023-01-29T08:25:24.944Z,-1.63
2023-01-29T08:27:51.663Z,-1.90
2023-01-29T08:30:18.640Z,-2.11
2023-01-29T08:32:45.170Z,-1.71
2023-01-29T08:35:11.639Z,-0.90
2023-01-29T08:37:38.100Z,-0.57
2023-01-29T08:40:05.046Z,-0.19
2023-01-29T08:42:31.536Z,0.15
2023-01-29T08:44:58.000Z,0.35
2023-01-29T08:47:24.501Z,0.51
2023-01-29T08:49:51.079Z,0.80
2023-01-29T08:52:17.658Z,1.05
2023-01-29T08:54:44.113Z,0.99
2023-01-29T08:57:10.697Z,0.43
2023-01-29T08:59:38.133Z,-0.67
2023-01-29T09:02:04.686Z,-0.07
2023-01-29T09:04:31.172Z,0.12
2023-01-29T09:06:57.773Z,0.80
2023-01-29T09:09:24.371Z,1.12
2023-01-29T09:11:51.024Z,0.78
2023-01-29T09:14:17.537Z,0.71
2023-01-29T09:16:44.132Z,0.76
2023-01-29T09:19:10.862Z,1.07
2023-01-29T09:21:37.336Z,1.31
2023-01-29T09:24:04.137Z,0.63
2023-01-29T09:26:30.668Z,0.33
2023-01-29T09:28:57.253Z,0.26
2023-01-29T09:31:23.857Z,0.67
2023-01-29T09:33:50.334Z,-0.09
2023-01-29T09:36:16.853Z,-0.03
2023-01-29T09:38:43.335Z,0.29
2023-01-29T09:41:22.127Z,-0.71
2023-01-29T09:43:58.913Z,-0.25
2023-01-29T09:46:43.445Z,0.91
2023-01-29T09:49:21.070Z,1.50
2023-01-29T09:51:52.291Z,0.91
2023-01-29T09:54:29.341Z,0.96
2023-01-29T09:56:57.213Z,1.69
2023-01-29T09:59:26.677Z,1.23
2023-01-29T10:02:26.246Z,1.67
2023-01-29T10:05:02.092Z,2.48
2023-01-29T10:07:31.218Z,2.47
2023-01-29T10:10:31.641Z,1.35
2023-01-29T10:13:12.113Z,0.85
2023-01-29T10:16:13.678Z,1.05
2023-01-29T10:19:01.851Z,1.52
2023-01-29T10:21:43.470Z,0.39
2023-01-29T10:24:24.517Z,0.88
2023-01-29T10:26:52.323Z,1.52
2023-01-29T10:29:21.909Z,0.92
2023-01-29T10:31:55.101Z,1.78
2023-01-29T10:34:30.107Z,1.71
2023-01-29T10:37:01.405Z,2.39
2023-01-29T10:39:30.953Z,2.62
2023-01-29T10:42:12.384Z,2.27
2023-01-29T10:44:47.884Z,1.95
2023-01-29T10:47:41.939Z,1.89
2023-01-29T10:50:26.839Z,1.96
2023-01-29T10:53:16.569Z,2.13
2023-01-29T10:56:22.329Z,2.52
2023-01-29T10:58:56.830Z,2.25
2023-01-29T11:01:23.902Z,1.61
2023-01-29T11:04:02.091Z,1.84
2023-01-29T11:06:31.574Z,2.27
2023-01-29T11:09:28.791Z,1.94
2023-01-29T11:12:03.935Z,2.46
2023-01-29T11:14:42.583Z,2.66
2023-01-29T11:17:21.262Z,2.52
2023-01-29T11:19:51.166Z,2.80
2023-01-29T11:22:20.656Z,3.04
2023-01-29T11:25:05.643Z,2.92
2023-01-29T11:27:35.410Z,2.83
2023-01-29T11:30:02.104Z,2.37
2023-01-29T11:32:32.698Z,3.17
2023-01-29T11:35:14.155Z,1.94
2023-01-29T11:37:43.584Z,1.92
2023-01-29T11:40:19.154Z,2.88
2023-01-29T11:42:47.318Z,2.00
2023-01-29T11:45:22.779Z,2.30
2023-01-29T11:47:52.912Z,2.30
2023-01-29T11:50:32.441Z,2.81
2023-01-29T11:52:59.938Z,2.81
2023-01-29T11:55:49.746Z,2.45
2023-01-29T11:58:22.689Z,1.67
2023-01-29T12:00:51.895Z,1.78
2023-01-29T12:03:33.819Z,2.28
2023-01-29T12:06:35.250Z,3.48
2023-01-29T12:09:09.321Z,3.98
2023-01-29T12:11:36.181Z,4.23
2023-01-29T12:14:05.409Z,3.82
2023-01-29T12:16:46.408Z,2.87
2023-01-29T12:19:22.591Z,3.19
2023-01-29T12:21:57.833Z,2.68
2023-01-29T12:24:36.599Z,1.97
2023-01-29T12:27:23.962Z,1.97
2023-01-29T12:30:06.272Z,4.34
2023-01-29T12:32:44.458Z,5.73
2023-01-29T12:35:23.089Z,4.40
2023-01-29T12:37:56.403Z,4.05
2023-01-29T12:40:29.459Z,3.46
2023-01-29T12:43:04.045Z,3.74
2023-01-29T12:45:31.624Z,4.04
2023-01-29T12:48:08.657Z,5.29
2023-01-29T12:50:37.801Z,6.32
2023-01-29T12:53:22.332Z,3.59
2023-01-29T12:55:55.439Z,2.61
2023-01-29T12:58:54.345Z,5.15
2023-01-29T13:01:32.004Z,3.40
2023-01-29T13:04:06.262Z,2.51
2023-01-29T13:06:42.507Z,2.04
2023-01-29T13:09:20.790Z,3.84
2023-01-29T13:11:58.392Z,4.92
2023-01-29T13:14:43.184Z,5.16
2023-01-29T13:17:16.101Z,1.88
2023-01-29T13:19:46.656Z,1.22
2023-01-29T13:22:39.246Z,1.66
2023-01-29T13:25:06.770Z,1.93
2023-01-29T13:27:35.306Z,2.75
2023-01-29T13:30:02.283Z,3.14
2023-01-29T13:32:31.484Z,3.29
2023-01-29T13:35:13.966Z,3.49
2023-01-29T13:37:51.019Z,3.62
2023-01-29T13:40:25.702Z,3.33
2023-01-29T13:42:54.326Z,3.54
2023-01-29T13:45:24.466Z,2.81
2023-01-29T13:47:52.856Z,2.67
2023-01-29T13:50:39.993Z,2.13
2023-01-29T13:53:09.127Z,1.06
2023-01-29T13:55:38.905Z,0.44
2023-01-29T13:58:07.017Z,1.46
2023-01-29T14:00:33.489Z,0.78
2023-01-29T14:02:59.979Z,1.65
2023-01-29T14:05:29.513Z,1.28
2023-01-29T14:07:59.263Z,1.66
2023-01-29T14:10:31.537Z,2.01
2023-01-29T14:13:04.019Z,2.48
2023-01-29T14:15:33.423Z,2.95
2023-01-29T14:18:05.982Z,3.39
2023-01-29T14:20:51.574Z,2.61
2023-01-29T14:23:29.167Z,2.79
2023-01-29T14:25:57.416Z,1.08
2023-01-29T14:28:28.160Z,1.10
2023-01-29T14:30:55.495Z,0.80
2023-01-29T14:33:36.367Z,0.66
2023-01-29T14:36:11.566Z,0.64
2023-01-29T14:38:39.788Z,1.00
2023-01-29T14:41:23.825Z,1.41
2023-01-29T14:43:50.402Z,1.19
2023-01-29T14:46:36.895Z,0.85
2023-01-29T14:49:03.598Z,1.40
2023-01-29T14:51:37.468Z,1.33
2023-01-29T14:54:15.466Z,0.98
2023-01-29T14:56:51.109Z,1.12
2023-01-29T14:59:53.386Z,1.37
2023-01-29T15:02:37.712Z,1.62
2023-01-29T15:05:11.760Z,1.57
2023-01-29T15:07:52.481Z,0.33
2023-01-29T15:10:25.134Z,0.50
2023-01-29T15:13:00.408Z,0.93
2023-01-29T15:15:48.814Z,1.15
2023-01-29T15:18:20.804Z,1.14
2023-01-29T15:20:47.412Z,1.02
2023-01-29T15:23:27.965Z,1.13
2023-01-29T15:25:57.301Z,0.96
2023-01-29T15:28:24.007Z,0.85
2023-01-29T15:30:59.168Z,0.87
2023-01-29T15:33:26.997Z,0.81
2023-01-29T15:36:09.514Z,0.65
2023-01-29T15:38:36.246Z,0.50
2023-01-29T15:41:33.816Z,0.26
2023-01-29T15:44:04.041Z,0.06
2023-01-29T15:46:35.491Z,-0.10
2023-01-29T15:49:08.585Z,-0.05
2023-01-29T15:51:35.618Z,0.04
2023-01-29T15:54:10.200Z,-0.05
2023-01-29T15:56:40.339Z,-0.11
2023-01-29T15:59:12.350Z,-0.15
2023-01-29T16:01:38.977Z,-0.29
2023-01-29T16:04:10.502Z,-0.33
2023-01-29T16:06:40.190Z,-0.40
2023-01-29T16:09:07.302Z,-0.43
2023-01-29T16:11:35.233Z,-0.49
2023-01-29T16:14:03.583Z,-0.55
2023-01-29T16:16:30.598Z,-0.64
2023-01-29T16:19:00.816Z,-0.83
2023-01-29T16:21:35.174Z,-0.79
2023-01-29T16:24:09.261Z,-0.56
2023-01-29T16:26:44.664Z,-0.62
2023-01-29T16:29:14.783Z,-0.66
2023-01-29T16:31:44.513Z,-0.65
2023-01-29T16:34:21.130Z,-0.86
2023-01-29T16:36:48.686Z,-0.88
2023-01-29T16:39:20.924Z,-0.90
2023-01-29T16:42:20.515Z,-0.96
2023-01-29T16:45:03.477Z,-0.87
2023-01-29T16:47:37.193Z,-0.97
2023-01-29T16:50:24.422Z,-0.97
2023-01-29T16:53:01.467Z,-0.97
2023-01-29T16:55:35.649Z,-1.05
2023-01-29T16:58:13.430Z,-1.13
2023-01-29T17:00:45.076Z,-1.06
2023-01-29T17:03:14.332Z,-1.09
2023-01-29T17:05:41.548Z,-1.09
2023-01-29T17:08:14.392Z,-1.04
2023-01-29T17:10:48.400Z,-1.03
2023-01-29T17:13:35.333Z,-1.10
2023-01-29T17:16:14.018Z,-1.11
2023-01-29T17:18:40.590Z,-1.03
2023-01-29T17:21:07.089Z,-1.14
2023-01-29T17:23:33.613Z,-1.05
2023-01-29T17:26:00.236Z,-1.15
2023-01-29T17:28:26.785Z,-1.16
2023-01-29T17:31:05.167Z,-1.18
2023-01-29T17:33:33.140Z,-1.23
2023-01-29T17:35:59.763Z,-1.16
2023-01-29T17:38:26.923Z,-1.13
2023-01-29T17:40:59.956Z,-1.07
2023-01-29T17:43:26.523Z,-1.21
2023-01-29T17:45:53.261Z,-1.17
2023-01-29T17:48:23.565Z,-1.17
2023-01-29T17:50:53.403Z,-1.21
2023-01-29T17:53:21.761Z,-1.25
2023-01-29T17:55:49.257Z,-1.24
2023-01-29T17:58:21.257Z,-1.29
2023-01-29T18:00:48.811Z,-1.34
2023-01-29T18:03:15.453Z,-1.41
2023-01-29T18:06:00.643Z,-1.46
2023-01-29T18:08:45.868Z,-1.52
2023-01-29T18:11:34.390Z,-1.47
2023-01-29T18:14:21.271Z,-1.56
2023-01-29T18:17:08.175Z,-1.47
2023-01-29T18:19:56.500Z,-1.55
2023-01-29T18:22:43.386Z,-1.54
2023-01-29T18:25:31.174Z,-1.47
2023-01-29T18:28:18.453Z,-1.45
2023-01-29T18:31:06.519Z,-1.64
2023-01-29T18:33:53.430Z,-1.47
2023-01-29T18:36:40.465Z,-1.51
2023-01-29T18:39:27.298Z,-1.66
2023-01-29T18:42:14.150Z,-1.65
2023-01-29T18:45:01.076Z,-1.67
2023-01-29T18:47:48.659Z,-1.74
2023-01-29T18:50:36.260Z,-1.74
2023-01-29T18:53:23.139Z,-1.83
2023-01-29T18:56:10.760Z,-1.92
2023-01-29T18:58:57.632Z,-1.97
2023-01-29T19:01:44.779Z,-2.19
2023-01-29T19:04:31.620Z,-2.19
2023-01-29T19:07:18.519Z,-2.12
2023-01-29T19:10:09.174Z,-2.10
2023-01-29T19:12:56.023Z,-2.06
2023-01-29T19:15:44.119Z,-2.09
2023-01-29T19:18:31.036Z,-2.09
2023-01-29T19:21:18.125Z,-2.10
2023-01-29T19:24:05.472Z,-2.04
2023-01-29T19:26:52.312Z,-2.10
2023-01-29T19:29:39.163Z,-2.10
2023-01-29T19:32:28.768Z,-2.17
2023-01-29T19:35:15.975Z,-2.16
2023-01-29T19:38:04.141Z,-2.26
2023-01-29T19:40:51.763Z,-2.22
2023-01-29T19:43:41.764Z,-2.27
2023-01-29T19:46:30.175Z,-2.30
2023-01-29T19:49:17.100Z,-2.46
2023-01-29T19:52:05.095Z,-2.39
2023-01-29T19:54:51.918Z,-2.31
2023-01-29T19:57:39.143Z,-2.35
2023-01-29T20:00:26.025Z,-2.39
2023-01-29T20:03:12.902Z,-2.41
2023-01-29T20:06:05.565Z,-2.44
2023-01-29T20:08:52.602Z,-2.43
2023-01-29T20:11:39.447Z,-2.48
2023-01-29T20:14:26.288Z,-2.53
2023-01-29T20:17:13.129Z,-2.57
2023-01-29T20:19:59.924Z,-2.65
2023-01-29T20:22:46.933Z,-2.57
2023-01-29T20:25:35.586Z,-2.61
2023-01-29T20:28:22.474Z,-2.49
2023-01-29T20:31:10.151Z,-2.58
2023-01-29T20:33:57.076Z,-2.55
2023-01-29T20:36:43.936Z,-2.55
2023-01-29T20:39:30.871Z,-2.56
